sensor_id;sensor_type;location;lat;lon;timestamp;pressure;altitude;pressure_sealevel;temperature;humidity
55517;BME280;41724;51.176;-0.708;2023-03-01T00:01:38;102767.42;;;8.47;48.24
55517;BME280;41724;51.176;-0.708;2023-03-01T00:04:06;102766.67;;;9.06;47.40
55517;BME280;41724;51.176;-0.708;2023-03-01T00:06:33;102770.48;;;8.53;47.89
55517;BME280;41724;51.176;-0.708;2023-03-01T00:09:00;102766.64;;;9.09;46.57
55517;BME280;41724;51.176;-0.708;2023-03-01T00:11:29;102765.54;;;9.15;46.22
55517;BME280;41724;51.176;-0.708;2023-03-01T00:13:58;102768.57;;;8.55;47.30
55517;BME280;41724;51.176;-0.708;2023-03-01T00:16:27;102769.81;;;8.53;47.21
55517;BME280;41724;51.176;-0.708;2023-03-01T00:18:56;102770.26;;;8.30;47.98
55517;BME280;41724;51.176;-0.708;2023-03-01T00:21:24;102774.21;;;8.81;47.45
55517;BME280;41724;51.176;-0.708;2023-03-01T00:23:52;102774.62;;;8.59;47.77
55517;BME280;41724;51.176;-0.708;2023-03-01T00:26:22;102774.02;;;8.42;47.08
55517;BME280;41724;51.176;-0.708;2023-03-01T00:28:51;102774.89;;;8.62;48.02
55517;BME280;41724;51.176;-0.708;2023-03-01T00:31:20;102774.02;;;8.12;47.54
55517;BME280;41724;51.176;-0.708;2023-03-01T00:33:50;102775.43;;;8.07;47.32
55517;BME280;41724;51.176;-0.708;2023-03-01T00:36:19;102773.12;;;7.36;47.90
55517;BME280;41724;51.176;-0.708;2023-03-01T00:38:46;102770.86;;;8.17;47.31
55517;BME280;41724;51.176;-0.708;2023-03-01T00:41:17;102771.20;;;8.31;46.25
55517;BME280;41724;51.176;-0.708;2023-03-01T00:43:45;102771.06;;;8.08;47.22
55517;BME280;41724;51.176;-0.708;2023-03-01T00:46:14;102773.39;;;8.02;46.73
55517;BME280;41724;51.176;-0.708;2023-03-01T00:48:43;102770.93;;;7.91;47.89
55517;BME280;41724;51.176;-0.708;2023-03-01T00:51:12;102769.96;;;8.19;47.18
55517;BME280;41724;51.176;-0.708;2023-03-01T00:53:39;102769.79;;;7.59;48.99
55517;BME280;41724;51.176;-0.708;2023-03-01T00:56:08;102773.37;;;7.97;47.84
55517;BME280;41724;51.176;-0.708;2023-03-01T00:58:36;102766.04;;;8.09;46.65
55517;BME280;41724;51.176;-0.708;2023-03-01T01:01:08;102767.86;;;8.24;45.75
55517;BME280;41724;51.176;-0.708;2023-03-01T01:03:35;102765.13;;;7.91;46.67
55517;BME280;41724;51.176;-0.708;2023-03-01T01:13:56;102756.69;;;8.95;45.85
55517;BME280;41724;51.176;-0.708;2023-03-01T01:16:24;102758.27;;;7.82;44.50
55517;BME280;41724;51.176;-0.708;2023-03-01T01:28:57;102756.45;;;9.03;45.67
55517;BME280;41724;51.176;-0.708;2023-03-01T01:31:24;102754.97;;;7.80;43.71
55517;BME280;41724;51.176;-0.708;2023-03-01T01:33:53;102752.30;;;9.53;43.28
55517;BME280;41724;51.176;-0.708;2023-03-01T01:36:21;102750.45;;;9.76;42.17
55517;BME280;41724;51.176;-0.708;2023-03-01T01:38:48;102748.66;;;9.13;43.56
55517;BME280;41724;51.176;-0.708;2023-03-01T01:41:16;102754.45;;;9.71;43.21
55517;BME280;41724;51.176;-0.708;2023-03-01T01:43:45;102746.63;;;9.50;43.39
55517;BME280;41724;51.176;-0.708;2023-03-01T01:46:21;102747.87;;;9.33;43.38
55517;BME280;41724;51.176;-0.708;2023-03-01T01:48:56;102742.34;;;9.36;43.77
55517;BME280;41724;51.176;-0.708;2023-03-01T01:51:27;102745.37;;;9.22;43.65
55517;BME280;41724;51.176;-0.708;2023-03-01T01:53:58;102749.07;;;9.02;44.03
55517;BME280;41724;51.176;-0.708;2023-03-01T01:56:29;102746.99;;;8.49;44.20
55517;BME280;41724;51.176;-0.708;2023-03-01T01:58:57;102743.95;;;8.91;44.21
55517;BME280;41724;51.176;-0.708;2023-03-01T02:01:24;102740.76;;;8.97;43.84
55517;BME280;41724;51.176;-0.708;2023-03-01T02:03:52;102738.82;;;8.80;43.57
55517;BME280;41724;51.176;-0.708;2023-03-01T02:06:24;102733.57;;;8.81;43.46
55517;BME280;41724;51.176;-0.708;2023-03-01T02:08:53;102731.77;;;9.05;42.69
55517;BME280;41724;51.176;-0.708;2023-03-01T02:11:21;102726.63;;;8.97;43.33
55517;BME280;41724;51.176;-0.708;2023-03-01T02:13:48;102723.00;;;9.58;43.24
55517;BME280;41724;51.176;-0.708;2023-03-01T02:16:16;102724.60;;;8.99;43.82
55517;BME280;41724;51.176;-0.708;2023-03-01T02:18:44;102721.22;;;9.39;43.12
55517;BME280;41724;51.176;-0.708;2023-03-01T02:21:23;102717.61;;;9.64;42.82
55517;BME280;41724;51.176;-0.708;2023-03-01T02:23:53;102715.29;;;9.14;43.16
55517;BME280;41724;51.176;-0.708;2023-03-01T02:26:25;102712.73;;;9.10;43.55
55517;BME280;41724;51.176;-0.708;2023-03-01T02:28:55;102708.07;;;9.04;43.58
55517;BME280;41724;51.176;-0.708;2023-03-01T02:31:24;102703.10;;;9.01;43.51
55517;BME280;41724;51.176;-0.708;2023-03-01T02:33:51;102702.64;;;8.67;44.54
55517;BME280;41724;51.176;-0.708;2023-03-01T02:36:22;102698.98;;;8.85;43.75
55517;BME280;41724;51.176;-0.708;2023-03-01T02:38:53;102697.02;;;9.06;42.80
55517;BME280;41724;51.176;-0.708;2023-03-01T02:41:22;102696.76;;;8.88;43.73
55517;BME280;41724;51.176;-0.708;2023-03-01T02:43:50;102694.70;;;8.45;45.37
55517;BME280;41724;51.176;-0.708;2023-03-01T02:46:19;102690.49;;;8.94;44.06
55517;BME280;41724;51.176;-0.708;2023-03-01T02:48:49;102685.06;;;8.87;44.45
55517;BME280;41724;51.176;-0.708;2023-03-01T02:51:26;102685.74;;;9.21;44.39
55517;BME280;41724;51.176;-0.708;2023-03-01T02:54:08;102681.22;;;9.37;43.86
55517;BME280;41724;51.176;-0.708;2023-03-01T02:56:37;102682.48;;;8.84;44.84
55517;BME280;41724;51.176;-0.708;2023-03-01T02:59:05;102676.45;;;8.77;44.43
55517;BME280;41724;51.176;-0.708;2023-03-01T03:01:32;102669.91;;;9.08;43.86
55517;BME280;41724;51.176;-0.708;2023-03-01T03:04:00;102667.51;;;8.95;43.33
55517;BME280;41724;51.176;-0.708;2023-03-01T03:06:28;102665.69;;;9.03;43.29
55517;BME280;41724;51.176;-0.708;2023-03-01T03:08:55;102665.73;;;9.06;43.86
55517;BME280;41724;51.176;-0.708;2023-03-01T03:11:22;102666.67;;;8.77;44.29
55517;BME280;41724;51.176;-0.708;2023-03-01T03:13:50;102665.56;;;9.19;44.74
55517;BME280;41724;51.176;-0.708;2023-03-01T03:16:17;102663.27;;;8.72;44.11
55517;BME280;41724;51.176;-0.708;2023-03-01T03:18:44;102659.04;;;8.86;43.45
55517;BME280;41724;51.176;-0.708;2023-03-01T03:21:13;102657.45;;;8.87;43.96
55517;BME280;41724;51.176;-0.708;2023-03-01T03:23:40;102658.44;;;9.09;44.92
55517;BME280;41724;51.176;-0.708;2023-03-01T03:26:09;102656.74;;;8.84;44.13
55517;BME280;41724;51.176;-0.708;2023-03-01T03:28:36;102652.14;;;8.63;44.86
55517;BME280;41724;51.176;-0.708;2023-03-01T03:31:05;102652.19;;;8.59;44.77
55517;BME280;41724;51.176;-0.708;2023-03-01T03:33:34;102654.05;;;9.15;44.45
55517;BME280;41724;51.176;-0.708;2023-03-01T03:36:03;102652.77;;;8.60;45.41
55517;BME280;41724;51.176;-0.708;2023-03-01T03:38:30;102654.14;;;8.36;45.24
55517;BME280;41724;51.176;-0.708;2023-03-01T03:41:01;102651.57;;;9.17;44.53
55517;BME280;41724;51.176;-0.708;2023-03-01T03:43:29;102643.45;;;8.78;44.27
55517;BME280;41724;51.176;-0.708;2023-03-01T03:45:57;102640.68;;;8.90;44.13
55517;BME280;41724;51.176;-0.708;2023-03-01T03:48:25;102638.64;;;9.13;44.42
55517;BME280;41724;51.176;-0.708;2023-03-01T03:50:54;102640.39;;;8.71;45.39
55517;BME280;41724;51.176;-0.708;2023-03-01T03:53:23;102638.84;;;9.20;45.16
55517;BME280;41724;51.176;-0.708;2023-03-01T03:55:51;102635.65;;;8.90;44.53
55517;BME280;41724;51.176;-0.708;2023-03-01T03:58:19;102635.04;;;8.99;45.01
55517;BME280;41724;51.176;-0.708;2023-03-01T04:00:50;102633.59;;;8.83;44.72
55517;BME280;41724;51.176;-0.708;2023-03-01T04:03:19;102632.88;;;8.80;44.57
55517;BME280;41724;51.176;-0.708;2023-03-01T04:05:47;102631.67;;;8.78;44.53
55517;BME280;41724;51.176;-0.708;2023-03-01T04:08:14;102632.04;;;8.90;45.05
55517;BME280;41724;51.176;-0.708;2023-03-01T04:10:45;102626.39;;;8.62;44.92
55517;BME280;41724;51.176;-0.708;2023-03-01T04:13:14;102629.09;;;9.12;44.74
55517;BME280;41724;51.176;-0.708;2023-03-01T04:15:42;102625.24;;;8.91;44.46
55517;BME280;41724;51.176;-0.708;2023-03-01T04:18:12;102625.65;;;9.12;44.46
55517;BME280;41724;51.176;-0.708;2023-03-01T04:20:40;102624.06;;;8.59;44.53
55517;BME280;41724;51.176;-0.708;2023-03-01T04:23:09;102620.64;;;8.74;44.57
55517;BME280;41724;51.176;-0.708;2023-03-01T04:25:39;102616.34;;;8.77;44.38
55517;BME280;41724;51.176;-0.708;2023-03-01T04:28:07;102612.18;;;8.71;44.36
55517;BME280;41724;51.176;-0.708;2023-03-01T04:30:34;102604.79;;;8.91;44.54
55517;BME280;41724;51.176;-0.708;2023-03-01T04:33:03;102600.08;;;8.33;45.11
55517;BME280;41724;51.176;-0.708;2023-03-01T04:35:31;102597.83;;;8.62;45.78
55517;BME280;41724;51.176;-0.708;2023-03-01T04:37:59;102598.73;;;8.52;45.93
55517;BME280;41724;51.176;-0.708;2023-03-01T04:40:26;102594.27;;;8.34;46.70
55517;BME280;41724;51.176;-0.708;2023-03-01T04:42:53;102596.79;;;8.33;46.55
55517;BME280;41724;51.176;-0.708;2023-03-01T04:45:20;102596.13;;;8.36;46.57
55517;BME280;41724;51.176;-0.708;2023-03-01T04:47:48;102589.85;;;8.21;46.45
55517;BME280;41724;51.176;-0.708;2023-03-01T04:50:16;102588.68;;;8.50;46.24
55517;BME280;41724;51.176;-0.708;2023-03-01T04:52:44;102587.67;;;8.59;46.45
55517;BME280;41724;51.176;-0.708;2023-03-01T04:55:11;102585.57;;;8.68;46.78
55517;BME280;41724;51.176;-0.708;2023-03-01T04:57:39;102584.62;;;8.45;46.91
55517;BME280;41724;51.176;-0.708;2023-03-01T05:00:10;102583.38;;;8.29;47.53
55517;BME280;41724;51.176;-0.708;2023-03-01T05:02:38;102585.73;;;8.66;48.01
55517;BME280;41724;51.176;-0.708;2023-03-01T05:05:06;102587.86;;;8.62;48.46
55517;BME280;41724;51.176;-0.708;2023-03-01T05:07:33;102589.04;;;8.62;49.18
55517;BME280;41724;51.176;-0.708;2023-03-01T05:10:00;102588.46;;;8.34;49.46
55517;BME280;41724;51.176;-0.708;2023-03-01T05:12:27;102588.59;;;8.63;49.88
55517;BME280;41724;51.176;-0.708;2023-03-01T05:14:53;102586.02;;;8.61;49.68
55517;BME280;41724;51.176;-0.708;2023-03-01T05:17:20;102584.26;;;8.08;50.50
55517;BME280;41724;51.176;-0.708;2023-03-01T05:19:47;102588.19;;;8.31;51.19
55517;BME280;41724;51.176;-0.708;2023-03-01T05:22:15;102591.25;;;8.02;51.54
55517;BME280;41724;51.176;-0.708;2023-03-01T05:24:42;102589.10;;;8.12;52.45
55517;BME280;41724;51.176;-0.708;2023-03-01T05:27:09;102588.23;;;7.90;53.12
55517;BME280;41724;51.176;-0.708;2023-03-01T05:29:37;102585.45;;;8.36;52.95
55517;BME280;41724;51.176;-0.708;2023-03-01T05:32:04;102584.93;;;7.84;53.77
55517;BME280;41724;51.176;-0.708;2023-03-01T05:34:33;102580.35;;;8.08;53.25
55517;BME280;41724;51.176;-0.708;2023-03-01T05:37:00;102579.94;;;8.04;53.46
55517;BME280;41724;51.176;-0.708;2023-03-01T05:39:29;102580.02;;;8.00;53.84
55517;BME280;41724;51.176;-0.708;2023-03-01T05:41:58;102576.73;;;7.90;54.53
55517;BME280;41724;51.176;-0.708;2023-03-01T05:44:27;102577.01;;;8.12;54.61
55517;BME280;41724;51.176;-0.708;2023-03-01T05:46:55;102578.04;;;7.83;54.51
55517;BME280;41724;51.176;-0.708;2023-03-01T05:49:23;102576.99;;;8.18;53.68
55517;BME280;41724;51.176;-0.708;2023-03-01T05:51:51;102576.77;;;8.22;52.91
55517;BME280;41724;51.176;-0.708;2023-03-01T05:54:20;102578.68;;;8.38;52.66
55517;BME280;41724;51.176;-0.708;2023-03-01T05:56:47;102576.87;;;8.12;53.48
55517;BME280;41724;51.176;-0.708;2023-03-01T05:59:14;102575.25;;;8.12;53.18
55517;BME280;41724;51.176;-0.708;2023-03-01T06:01:42;102572.63;;;8.28;52.86
55517;BME280;41724;51.176;-0.708;2023-03-01T06:04:09;102573.90;;;8.29;53.27
55517;BME280;41724;51.176;-0.708;2023-03-01T06:06:37;102570.79;;;8.40;53.51
55517;BME280;41724;51.176;-0.708;2023-03-01T06:09:05;102566.36;;;8.54;53.51
55517;BME280;41724;51.176;-0.708;2023-03-01T06:11:34;102569.25;;;8.00;55.28
55517;BME280;41724;51.176;-0.708;2023-03-01T06:14:01;102572.54;;;7.93;55.88
55517;BME280;41724;51.176;-0.708;2023-03-01T06:16:27;102574.70;;;8.14;55.50
55517;BME280;41724;51.176;-0.708;2023-03-01T06:18:54;102568.71;;;7.92;56.10
55517;BME280;41724;51.176;-0.708;2023-03-01T06:21:22;102567.05;;;8.03;56.18
55517;BME280;41724;51.176;-0.708;2023-03-01T06:23:49;102565.12;;;7.74;56.35
55517;BME280;41724;51.176;-0.708;2023-03-01T06:26:16;102561.70;;;8.32;55.84
55517;BME280;41724;51.176;-0.708;2023-03-01T06:28:43;102561.71;;;8.51;55.41
55517;BME280;41724;51.176;-0.708;2023-03-01T06:31:11;102566.73;;;8.25;56.13
55517;BME280;41724;51.176;-0.708;2023-03-01T06:33:38;102567.85;;;8.11;55.64
55517;BME280;41724;51.176;-0.708;2023-03-01T06:36:06;102571.83;;;8.58;55.58
55517;BME280;41724;51.176;-0.708;2023-03-01T06:38:33;102569.87;;;8.72;55.27
55517;BME280;41724;51.176;-0.708;2023-03-01T06:41:01;102565.73;;;8.61;55.23
55517;BME280;41724;51.176;-0.708;2023-03-01T06:43:28;102567.75;;;8.56;54.59
55517;BME280;41724;51.176;-0.708;2023-03-01T06:45:55;102569.99;;;8.06;55.60
55517;BME280;41724;51.176;-0.708;2023-03-01T06:48:23;102575.47;;;8.11;55.62
55517;BME280;41724;51.176;-0.708;2023-03-01T06:50:50;102578.60;;;8.10;56.10
55517;BME280;41724;51.176;-0.708;2023-03-01T06:53:17;102581.88;;;7.66;56.17
55517;BME280;41724;51.176;-0.708;2023-03-01T06:55:44;102584.99;;;8.21;56.36
55517;BME280;41724;51.176;-0.708;2023-03-01T06:58:11;102585.54;;;8.47;56.09
55517;BME280;41724;51.176;-0.708;2023-03-01T07:00:39;102590.28;;;8.51;55.44
55517;BME280;41724;51.176;-0.708;2023-03-01T07:03:06;102590.09;;;8.55;55.70
55517;BME280;41724;51.176;-0.708;2023-03-01T07:05:33;102591.89;;;8.26;55.23
55517;BME280;41724;51.176;-0.708;2023-03-01T07:08:00;102590.93;;;8.49;54.91
55517;BME280;41724;51.176;-0.708;2023-03-01T07:10:28;102593.88;;;8.31;54.72
55517;BME280;41724;51.176;-0.708;2023-03-01T07:12:56;102594.56;;;8.77;54.46
55517;BME280;41724;51.176;-0.708;2023-03-01T07:15:24;102597.23;;;8.44;54.87
55517;BME280;41724;51.176;-0.708;2023-03-01T07:17:51;102598.18;;;8.82;54.91
55517;BME280;41724;51.176;-0.708;2023-03-01T07:20:19;102599.38;;;8.89;55.06
55517;BME280;41724;51.176;-0.708;2023-03-01T07:22:46;102607.16;;;8.71;55.06
55517;BME280;41724;51.176;-0.708;2023-03-01T07:25:13;102607.51;;;8.66;54.91
55517;BME280;41724;51.176;-0.708;2023-03-01T07:27:40;102607.74;;;8.54;54.76
55517;BME280;41724;51.176;-0.708;2023-03-01T07:30:09;102607.19;;;8.77;54.52
55517;BME280;41724;51.176;-0.708;2023-03-01T07:32:36;102604.11;;;8.76;54.50
55517;BME280;41724;51.176;-0.708;2023-03-01T07:35:03;102606.22;;;8.55;54.87
55517;BME280;41724;51.176;-0.708;2023-03-01T07:37:30;102600.15;;;8.24;56.38
55517;BME280;41724;51.176;-0.708;2023-03-01T07:39:57;102596.83;;;9.26;55.00
55517;BME280;41724;51.176;-0.708;2023-03-01T07:42:25;102595.31;;;9.08;53.81
55517;BME280;41724;51.176;-0.708;2023-03-01T07:44:52;102592.65;;;9.07;53.84
55517;BME280;41724;51.176;-0.708;2023-03-01T07:47:19;102588.36;;;9.19;53.57
55517;BME280;41724;51.176;-0.708;2023-03-01T07:49:47;102587.20;;;9.11;53.88
55517;BME280;41724;51.176;-0.708;2023-03-01T07:52:13;102588.21;;;9.22;53.60
55517;BME280;41724;51.176;-0.708;2023-03-01T07:54:43;102587.19;;;9.08;54.10
55517;BME280;41724;51.176;-0.708;2023-03-01T07:57:10;102585.95;;;8.96;55.24
55517;BME280;41724;51.176;-0.708;2023-03-01T07:59:37;102581.41;;;9.42;54.90
55517;BME280;41724;51.176;-0.708;2023-03-01T08:02:05;102582.52;;;9.24;54.36
55517;BME280;41724;51.176;-0.708;2023-03-01T08:04:32;102581.07;;;9.63;54.35
55517;BME280;41724;51.176;-0.708;2023-03-01T08:06:59;102582.25;;;9.30;54.03
55517;BME280;41724;51.176;-0.708;2023-03-01T08:09:26;102583.62;;;9.31;54.43
55517;BME280;41724;51.176;-0.708;2023-03-01T08:11:53;102580.94;;;9.79;53.51
55517;BME280;41724;51.176;-0.708;2023-03-01T08:14:21;102580.58;;;9.65;53.53
55517;BME280;41724;51.176;-0.708;2023-03-01T08:16:49;102578.83;;;9.72;53.74
55517;BME280;41724;51.176;-0.708;2023-03-01T08:19:16;102577.90;;;9.71;52.82
55517;BME280;41724;51.176;-0.708;2023-03-01T08:21:43;102573.70;;;10.21;52.51
55517;BME280;41724;51.176;-0.708;2023-03-01T08:24:10;102580.43;;;9.94;53.20
55517;BME280;41724;51.176;-0.708;2023-03-01T08:26:38;102581.18;;;9.98;53.46
55517;BME280;41724;51.176;-0.708;2023-03-01T08:29:05;102584.04;;;9.39;53.66
55517;BME280;41724;51.176;-0.708;2023-03-01T08:31:34;102586.28;;;9.50;53.47
55517;BME280;41724;51.176;-0.708;2023-03-01T08:34:04;102593.15;;;9.41;53.92
55517;BME280;41724;51.176;-0.708;2023-03-01T08:36:35;102592.84;;;9.56;54.29
55517;BME280;41724;51.176;-0.708;2023-03-01T08:39:03;102586.85;;;9.52;54.35
55517;BME280;41724;51.176;-0.708;2023-03-01T08:41:30;102588.17;;;9.73;53.59
55517;BME280;41724;51.176;-0.708;2023-03-01T08:43:58;102586.55;;;9.00;54.24
55517;BME280;41724;51.176;-0.708;2023-03-01T08:46:25;102590.02;;;9.42;53.36
55517;BME280;41724;51.176;-0.708;2023-03-01T08:48:53;102586.75;;;9.40;53.75
55517;BME280;41724;51.176;-0.708;2023-03-01T08:51:21;102584.64;;;9.34;53.68
55517;BME280;41724;51.176;-0.708;2023-03-01T08:53:49;102586.25;;;9.58;54.29
55517;BME280;41724;51.176;-0.708;2023-03-01T08:56:16;102585.98;;;9.69;53.09
55517;BME280;41724;51.176;-0.708;2023-03-01T08:58:44;102580.45;;;9.97;52.12
55517;BME280;41724;51.176;-0.708;2023-03-01T09:01:14;102579.80;;;9.64;53.17
55517;BME280;41724;51.176;-0.708;2023-03-01T09:03:42;102577.81;;;9.28;53.58
55517;BME280;41724;51.176;-0.708;2023-03-01T09:06:10;102578.18;;;9.32;54.16
55517;BME280;41724;51.176;-0.708;2023-03-01T09:08:38;102573.20;;;9.25;53.87
55517;BME280;41724;51.176;-0.708;2023-03-01T09:11:07;102570.29;;;9.07;53.57
55517;BME280;41724;51.176;-0.708;2023-03-01T09:13:36;102561.01;;;9.49;54.24
55517;BME280;41724;51.176;-0.708;2023-03-01T09:16:06;102561.06;;;9.71;52.95
55517;BME280;41724;51.176;-0.708;2023-03-01T09:18:34;102553.80;;;9.57;52.14
55517;BME280;41724;51.176;-0.708;2023-03-01T09:21:03;102551.90;;;9.93;52.32
55517;BME280;41724;51.176;-0.708;2023-03-01T09:23:31;102548.60;;;9.92;51.40
55517;BME280;41724;51.176;-0.708;2023-03-01T09:25:58;102543.37;;;9.87;52.63
55517;BME280;41724;51.176;-0.708;2023-03-01T09:28:25;102543.35;;;10.17;51.16
55517;BME280;41724;51.176;-0.708;2023-03-01T09:30:52;102539.62;;;10.02;51.76
55517;BME280;41724;51.176;-0.708;2023-03-01T09:33:20;102537.91;;;10.45;51.02
55517;BME280;41724;51.176;-0.708;2023-03-01T09:35:47;102538.31;;;10.35;50.17
55517;BME280;41724;51.176;-0.708;2023-03-01T09:38:14;102530.09;;;10.54;49.33
55517;BME280;41724;51.176;-0.708;2023-03-01T09:40:44;102526.97;;;10.85;48.69
55517;BME280;41724;51.176;-0.708;2023-03-01T09:43:18;102525.50;;;10.65;49.16
55517;BME280;41724;51.176;-0.708;2023-03-01T09:45:49;102521.13;;;10.40;48.20
55517;BME280;41724;51.176;-0.708;2023-03-01T09:48:20;102517.75;;;8.46;52.04
55517;BME280;41724;51.176;-0.708;2023-03-01T09:50:48;102513.98;;;9.46;51.85
55517;BME280;41724;51.176;-0.708;2023-03-01T09:53:17;102517.06;;;9.11;52.76
55517;BME280;41724;51.176;-0.708;2023-03-01T09:55:49;102515.55;;;8.95;55.04
55517;BME280;41724;51.176;-0.708;2023-03-01T09:58:43;102509.25;;;9.53;52.29
55517;BME280;41724;51.176;-0.708;2023-03-01T10:01:26;102508.73;;;9.28;51.34
55517;BME280;41724;51.176;-0.708;2023-03-01T10:04:08;102511.63;;;9.28;49.93
55517;BME280;41724;51.176;-0.708;2023-03-01T10:06:38;102507.30;;;9.50;50.09
55517;BME280;41724;51.176;-0.708;2023-03-01T10:09:11;102506.15;;;9.22;51.78
55517;BME280;41724;51.176;-0.708;2023-03-01T10:11:43;102504.67;;;9.60;50.09
55517;BME280;41724;51.176;-0.708;2023-03-01T10:14:18;102512.19;;;9.14;52.39
55517;BME280;41724;51.176;-0.708;2023-03-01T10:16:55;102498.67;;;8.98;50.32
55517;BME280;41724;51.176;-0.708;2023-03-01T10:19:29;102497.58;;;9.20;50.76
55517;BME280;41724;51.176;-0.708;2023-03-01T10:22:03;102491.62;;;9.28;49.61
55517;BME280;41724;51.176;-0.708;2023-03-01T10:24:34;102494.82;;;9.02;51.40
55517;BME280;41724;51.176;-0.708;2023-03-01T10:27:07;102493.75;;;8.86;51.23
55517;BME280;41724;51.176;-0.708;2023-03-01T10:29:41;102490.00;;;8.63;49.70
55517;BME280;41724;51.176;-0.708;2023-03-01T10:32:11;102487.57;;;7.99;52.41
55517;BME280;41724;51.176;-0.708;2023-03-01T10:34:38;102488.89;;;8.64;51.26
55517;BME280;41724;51.176;-0.708;2023-03-01T10:37:11;102489.15;;;8.75;49.58
55517;BME280;41724;51.176;-0.708;2023-03-01T10:39:55;102493.03;;;9.30;48.84
55517;BME280;41724;51.176;-0.708;2023-03-01T10:42:27;102487.98;;;9.02;47.33
55517;BME280;41724;51.176;-0.708;2023-03-01T10:44:55;102490.47;;;9.07;48.58
55517;BME280;41724;51.176;-0.708;2023-03-01T10:47:24;102486.60;;;9.34;47.96
55517;BME280;41724;51.176;-0.708;2023-03-01T10:49:54;102489.56;;;9.38;48.30
55517;BME280;41724;51.176;-0.708;2023-03-01T10:52:24;102483.54;;;9.11;49.07
55517;BME280;41724;51.176;-0.708;2023-03-01T10:54:55;102484.10;;;9.90;48.04
55517;BME280;41724;51.176;-0.708;2023-03-01T10:57:34;102476.55;;;9.42;47.02
55517;BME280;41724;51.176;-0.708;2023-03-01T11:00:18;102468.74;;;9.52;47.47
55517;BME280;41724;51.176;-0.708;2023-03-01T11:02:50;102460.52;;;10.08;46.81
55517;BME280;41724;51.176;-0.708;2023-03-01T11:05:21;102455.89;;;9.68;46.88
55517;BME280;41724;51.176;-0.708;2023-03-01T11:07:50;102455.16;;;10.11;47.17
55517;BME280;41724;51.176;-0.708;2023-03-01T11:10:20;102449.89;;;10.31;46.42
55517;BME280;41724;51.176;-0.708;2023-03-01T11:12:48;102443.79;;;11.00;45.76
55517;BME280;41724;51.176;-0.708;2023-03-01T11:15:24;102445.60;;;11.09;44.59
55517;BME280;41724;51.176;-0.708;2023-03-01T11:17:52;102437.58;;;11.09;44.88
55517;BME280;41724;51.176;-0.708;2023-03-01T11:20:25;102436.50;;;11.74;44.20
55517;BME280;41724;51.176;-0.708;2023-03-01T11:22:56;102442.35;;;10.50;44.93
55517;BME280;41724;51.176;-0.708;2023-03-01T11:25:26;102439.78;;;10.55;45.79
55517;BME280;41724;51.176;-0.708;2023-03-01T11:27:54;102441.60;;;10.49;46.60
55517;BME280;41724;51.176;-0.708;2023-03-01T11:30:25;102431.07;;;10.26;46.16
55517;BME280;41724;51.176;-0.708;2023-03-01T11:33:04;102428.84;;;10.72;46.08
55517;BME280;41724;51.176;-0.708;2023-03-01T11:35:34;102423.33;;;10.33;45.74
55517;BME280;41724;51.176;-0.708;2023-03-01T11:38:14;102419.14;;;10.54;45.15
55517;BME280;41724;51.176;-0.708;2023-03-01T11:40:46;102418.41;;;10.37;47.34
55517;BME280;41724;51.176;-0.708;2023-03-01T11:43:19;102415.05;;;10.33;45.74
55517;BME280;41724;51.176;-0.708;2023-03-01T11:46:02;102411.95;;;10.03;46.91
55517;BME280;41724;51.176;-0.708;2023-03-01T11:48:45;102409.04;;;10.45;46.07
55517;BME280;41724;51.176;-0.708;2023-03-01T11:51:22;102412.63;;;10.93;45.73
55517;BME280;41724;51.176;-0.708;2023-03-01T11:54:04;102406.87;;;9.94;47.29
55517;BME280;41724;51.176;-0.708;2023-03-01T11:56:38;102409.16;;;9.81;46.99
55517;BME280;41724;51.176;-0.708;2023-03-01T11:59:33;102407.15;;;9.18;48.16
55517;BME280;41724;51.176;-0.708;2023-03-01T12:02:35;102403.90;;;8.99;49.11
55517;BME280;41724;51.176;-0.708;2023-03-01T12:05:21;102400.64;;;8.53;51.78
55517;BME280;41724;51.176;-0.708;2023-03-01T12:07:56;102395.40;;;8.87;48.77
55517;BME280;41724;51.176;-0.708;2023-03-01T12:10:33;102392.72;;;9.26;48.92
55517;BME280;41724;51.176;-0.708;2023-03-01T12:13:15;102387.76;;;9.81;48.45
55517;BME280;41724;51.176;-0.708;2023-03-01T12:15:57;102389.80;;;9.53;49.15
55517;BME280;41724;51.176;-0.708;2023-03-01T12:18:44;102383.12;;;9.47;49.04
55517;BME280;41724;51.176;-0.708;2023-03-01T12:21:27;102374.94;;;10.04;47.23
55517;BME280;41724;51.176;-0.708;2023-03-01T12:24:10;102372.47;;;9.79;46.39
55517;BME280;41724;51.176;-0.708;2023-03-01T12:26:48;102366.64;;;10.25;45.91
55517;BME280;41724;51.176;-0.708;2023-03-01T12:29:25;102365.39;;;10.39;45.46
55517;BME280;41724;51.176;-0.708;2023-03-01T12:32:03;102359.22;;;10.02;46.56
55517;BME280;41724;51.176;-0.708;2023-03-01T12:34:47;102353.56;;;9.42;47.59
55517;BME280;41724;51.176;-0.708;2023-03-01T12:37:26;102347.54;;;9.07;49.28
55517;BME280;41724;51.176;-0.708;2023-03-01T12:40:13;102346.51;;;8.98;49.19
55517;BME280;41724;51.176;-0.708;2023-03-01T12:42:50;102342.83;;;9.97;46.83
55517;BME280;41724;51.176;-0.708;2023-03-01T12:45:34;102338.96;;;9.00;48.98
55517;BME280;41724;51.176;-0.708;2023-03-01T12:48:19;102330.44;;;9.25;48.81
55517;BME280;41724;51.176;-0.708;2023-03-01T12:50:52;102324.88;;;9.45;48.77
55517;BME280;41724;51.176;-0.708;2023-03-01T12:53:24;102317.58;;;9.75;48.61
55517;BME280;41724;51.176;-0.708;2023-03-01T12:55:54;102313.69;;;9.92;47.66
55517;BME280;41724;51.176;-0.708;2023-03-01T12:58:28;102311.05;;;9.92;47.47
55517;BME280;41724;51.176;-0.708;2023-03-01T13:01:10;102304.24;;;10.09;47.24
55517;BME280;41724;51.176;-0.708;2023-03-01T13:04:01;102301.94;;;10.59;46.48
55517;BME280;41724;51.176;-0.708;2023-03-01T13:06:39;102297.96;;;10.22;46.66
55517;BME280;41724;51.176;-0.708;2023-03-01T13:09:14;102300.03;;;10.04;47.49
55517;BME280;41724;51.176;-0.708;2023-03-01T13:11:44;102291.72;;;9.56;49.08
55517;BME280;41724;51.176;-0.708;2023-03-01T13:15:26;102289.65;;;9.99;49.33
55517;BME280;41724;51.176;-0.708;2023-03-01T13:17:56;102279.09;;;10.97;46.93
55517;BME280;41724;51.176;-0.708;2023-03-01T13:20:27;102280.45;;;10.68;46.76
55517;BME280;41724;51.176;-0.708;2023-03-01T13:23:24;102280.82;;;11.33;45.17